Hayase Maru — JD2583 — position and weather

sailwx.info

Track history (hours):
 
Tides and Currents Weather Stations Pressure Air Temp Water Temp Dewpoint Dewpoint Depression Visibility Wind Speed Wind Dir Waves Ship Positions

Hayase Maru

Last reported at 2017-Jan-12 15:32 UTC. Time now 2017-Jan-17 06:57 UTC.
Position N 34°36' E 134°54'.

Length 73 m; draft 4 m.

Type: Ship. MMSI: 431000395.

Date/timePositionNaut miles runAvg speedWind from/ knotsBaromVisibWave heightAir tempDewpointWater temp
2017-Jan-12 15:32N 34°36' E 134°54'8 7.7
2017-Jan-12 14:33N 34°36' E 135°04'1010.4
2017-Jan-12 13:33N 34°38' E 135°16'7 7.3
2017-Jan-12 12:33N 34°38' E 135°25'0 0.0
2017-Jan-12 11:33N 34°38' E 135°25'0 0.0
2017-Jan-12 10:33N 34°38' E 135°25'0 0.0
2017-Jan-12 09:33N 34°38' E 135°25'0 0.0
2017-Jan-12 08:33N 34°38' E 135°25'0 0.0
2017-Jan-12 07:33N 34°38' E 135°25'0 0.0
2017-Jan-12 06:33N 34°38' E 135°25'0 0.0
2017-Jan-12 05:33N 34°38' E 135°25'0 0.0
2017-Jan-12 04:33N 34°38' E 135°25'1 1.2
2017-Jan-12 03:33N 34°38' E 135°24'3 2.7
2017-Jan-12 02:33N 34°38' E 135°27'0 0.0
2017-Jan-12 01:32N 34°38' E 135°27'0 0.0
2017-Jan-12 00:33N 34°38' E 135°27'0 0.0
2017-Jan-11 23:33N 34°38' E 135°27'0 0.0
2017-Jan-11 22:33N 34°38' E 135°27'0 0.0
2017-Jan-11 21:30N 34°38' E 135°27'0 0.0
2017-Jan-11 20:33N 34°38' E 135°27'0 0.0
2017-Jan-11 19:32N 34°38' E 135°27'0 0.1
2017-Jan-11 18:33N 34°38' E 135°27'0 0.0
2017-Jan-11 17:33N 34°38' E 135°27'0 0.0
2017-Jan-11 16:33N 34°38' E 135°27'0 0.0
2017-Jan-11 15:33N 34°38' E 135°27'1 0.6
2017-Jan-11 14:33N 34°38' E 135°27'0 0.0
2017-Jan-11 13:33N 34°38' E 135°27'0 0.0
2017-Jan-11 12:33N 34°38' E 135°27'0 0.0
2017-Jan-11 11:33N 34°38' E 135°27'0 0.0
2017-Jan-11 10:25N 34°38' E 135°27'0 0.3
2017-Jan-11 09:33N 34°38' E 135°27'3 3.1
2017-Jan-11 08:33N 34°37' E 135°23'0 0.0
2017-Jan-11 07:32N 34°37' E 135°23'9 9.0
2017-Jan-11 06:32N 34°31' E 135°15'1110.9
2017-Jan-11 05:30N 34°22' E 135°06'9 9.3
2017-Jan-11 04:33N 34°15' E 134°60'1110.4
2017-Jan-11 03:28N 34°04' E 135°00'239 8.6
2017-Jan-09 23:32N 35°06' E 139°41'1111.0
2017-Jan-09 22:33N 35°16' E 139°45'7 6.4
2017-Jan-09 21:32N 35°22' E 139°40'0 0.0
2017-Jan-09 20:32N 35°22' E 139°40'0 0.0
2017-Jan-09 19:29N 35°22' E 139°40'0 0.0
2017-Jan-09 18:29N 35°22' E 139°40'0 0.1
2017-Jan-09 17:32N 35°22' E 139°40'0 0.0
2017-Jan-09 16:32N 35°22' E 139°40'0 0.0
2017-Jan-09 15:32N 35°22' E 139°40'0 0.1
2017-Jan-09 14:29N 35°22' E 139°40'0 0.0
2017-Jan-09 13:29N 35°22' E 139°40'0 0.0
2017-Jan-09 12:32N 35°22' E 139°40'0 0.0
2017-Jan-09 11:32N 35°22' E 139°40'0 0.0
2017-Jan-09 10:32N 35°22' E 139°40'0 0.0
2017-Jan-09 09:32N 35°22' E 139°40'0 0.0
2017-Jan-09 08:32N 35°22' E 139°40'0 0.0
2017-Jan-09 07:29N 35°22' E 139°40'0 0.0
2017-Jan-09 06:32N 35°22' E 139°40'0 0.0
2017-Jan-09 05:32N 35°22' E 139°40'0 0.0
2017-Jan-09 04:32N 35°22' E 139°40'0 0.0
2017-Jan-09 03:32N 35°22' E 139°40'0 0.0
2017-Jan-09 02:32N 35°22' E 139°40'0 0.0
2017-Jan-09 01:33N 35°22' E 139°40'0 0.0
2017-Jan-09 00:33N 35°22' E 139°40'0 0.0
2017-Jan-08 23:33N 35°22' E 139°40'0 0.0
2017-Jan-08 22:33N 35°22' E 139°40'0 0.0
2017-Jan-08 21:33N 35°22' E 139°40'0 0.0
2017-Jan-08 20:33N 35°22' E 139°40'0 0.0
2017-Jan-08 19:33N 35°22' E 139°40'0 0.0
2017-Jan-08 18:33N 35°22' E 139°40'0 0.0
2017-Jan-08 17:33N 35°22' E 139°40'0 0.0
2017-Jan-08 16:32N 35°22' E 139°40'0 0.0
2017-Jan-08 15:30N 35°22' E 139°40'0 0.0
2017-Jan-08 14:30N 35°22' E 139°40'0 0.0
2017-Jan-08 13:33N 35°22' E 139°40'0 0.0
2017-Jan-08 12:33N 35°22' E 139°40'0 0.0
2017-Jan-08 11:33N 35°22' E 139°40'0 0.0
2017-Jan-08 10:30N 35°22' E 139°40'0 0.0
2017-Jan-08 09:27N 35°22' E 139°40'0 0.1
2017-Jan-08 08:33N 35°22' E 139°40'0 0.0
2017-Jan-08 07:30N 35°22' E 139°40'0 0.0
2017-Jan-08 06:33N 35°22' E 139°40'0 0.0
2017-Jan-08 05:30N 35°22' E 139°40'0 0.0
2017-Jan-08 04:33N 35°22' E 139°40'0 0.0
2017-Jan-08 03:33N 35°22' E 139°40'0 0.0
2017-Jan-08 02:33N 35°22' E 139°40'0 0.0
2017-Jan-08 01:33N 35°22' E 139°40'6 6.1
2017-Jan-08 00:34N 35°25' E 139°46'7 7.1
2017-Jan-07 23:32N 35°22' E 139°53'0 0.0
2017-Jan-07 21:33N 35°22' E 139°53'0 0.0
2017-Jan-07 20:29N 35°22' E 139°53'0 0.0
2017-Jan-07 19:33N 35°22' E 139°53'0 0.0
2017-Jan-07 18:32N 35°22' E 139°53'0 0.0
2017-Jan-07 17:33N 35°22' E 139°53'0 0.0
2017-Jan-07 16:32N 35°22' E 139°53'0 0.0
2017-Jan-07 15:33N 35°22' E 139°53'0 0.0
2017-Jan-07 14:33N 35°22' E 139°53'0 0.0
2017-Jan-07 13:33N 35°22' E 139°53'0 0.0
2017-Jan-07 12:33N 35°22' E 139°53'0 0.0
2017-Jan-07 11:33N 35°22' E 139°53'8 7.7
2017-Jan-07 10:33N 35°29' E 139°51'1312.7
2017-Jan-07 09:33N 35°36' E 140°05'1 0.2
2017-Jan-07 02:14N 35°37' E 140°05'0 0.0
2017-Jan-07 01:09N 35°37' E 140°05'0 0.0
2017-Jan-07 00:33N 35°37' E 140°05'1 0.0
2017-Jan-05 22:33N 35°35' E 140°05'1 0.1
2017-Jan-05 13:20N 35°35' E 140°04'810.6
2017-Jan-05 12:33N 35°30' E 139°55'1110.6
2017-Jan-05 11:33N 35°23' E 139°46'10 9.8
2017-Jan-05 10:33N 35°13' E 139°47'244 4.9
2017-Jan-03 08:20N 34°14' E 134°59'912.0
2017-Jan-03 07:33N 34°23' E 135°03'1212.0
2017-Jan-03 06:34N 34°30' E 135°14'1110.5
2017-Jan-03 05:33N 34°36' E 135°25'  
Track history (hours):
 
Tides and Currents Weather Stations Pressure Air Temp Water Temp Dewpoint Dewpoint Depression Visibility Wind Speed Wind Dir Waves Ship Positions

Hayase Maru

Last reported at 2017-Jan-12 15:32 UTC. Time now 2017-Jan-17 06:57 UTC.
Position N 34°36' E 134°54'.

Length 73 m; draft 4 m.

Type: Ship. MMSI: 431000395.

Date/timePositionNaut miles runAvg speedWind from/ knotsBaromVisibWave heightAir tempDewpointWater temp
2017-Jan-12 15:32N 34°36' E 134°54'8 7.7
2017-Jan-12 14:33N 34°36' E 135°04'1010.4
2017-Jan-12 13:33N 34°38' E 135°16'7 7.3
2017-Jan-12 12:33N 34°38' E 135°25'0 0.0
2017-Jan-12 11:33N 34°38' E 135°25'0 0.0
2017-Jan-12 10:33N 34°38' E 135°25'0 0.0
2017-Jan-12 09:33N 34°38' E 135°25'0 0.0
2017-Jan-12 08:33N 34°38' E 135°25'0 0.0
2017-Jan-12 07:33N 34°38' E 135°25'0 0.0
2017-Jan-12 06:33N 34°38' E 135°25'0 0.0
2017-Jan-12 05:33N 34°38' E 135°25'0 0.0
2017-Jan-12 04:33N 34°38' E 135°25'1 1.2
2017-Jan-12 03:33N 34°38' E 135°24'3 2.7
2017-Jan-12 02:33N 34°38' E 135°27'0 0.0
2017-Jan-12 01:32N 34°38' E 135°27'0 0.0
2017-Jan-12 00:33N 34°38' E 135°27'0 0.0
2017-Jan-11 23:33N 34°38' E 135°27'0 0.0
2017-Jan-11 22:33N 34°38' E 135°27'0 0.0
2017-Jan-11 21:30N 34°38' E 135°27'0 0.0
2017-Jan-11 20:33N 34°38' E 135°27'0 0.0
2017-Jan-11 19:32N 34°38' E 135°27'0 0.1
2017-Jan-11 18:33N 34°38' E 135°27'0 0.0
2017-Jan-11 17:33N 34°38' E 135°27'0 0.0
2017-Jan-11 16:33N 34°38' E 135°27'0 0.0
2017-Jan-11 15:33N 34°38' E 135°27'1 0.6
2017-Jan-11 14:33N 34°38' E 135°27'0 0.0
2017-Jan-11 13:33N 34°38' E 135°27'0 0.0
2017-Jan-11 12:33N 34°38' E 135°27'0 0.0
2017-Jan-11 11:33N 34°38' E 135°27'0 0.0
2017-Jan-11 10:25N 34°38' E 135°27'0 0.3
2017-Jan-11 09:33N 34°38' E 135°27'3 3.1
2017-Jan-11 08:33N 34°37' E 135°23'0 0.0
2017-Jan-11 07:32N 34°37' E 135°23'9 9.0
2017-Jan-11 06:32N 34°31' E 135°15'1110.9
2017-Jan-11 05:30N 34°22' E 135°06'9 9.3
2017-Jan-11 04:33N 34°15' E 134°60'1110.4
2017-Jan-11 03:28N 34°04' E 135°00'239 8.6
2017-Jan-09 23:32N 35°06' E 139°41'1111.0
2017-Jan-09 22:33N 35°16' E 139°45'7 6.4
2017-Jan-09 21:32N 35°22' E 139°40'0 0.0
2017-Jan-09 20:32N 35°22' E 139°40'0 0.0
2017-Jan-09 19:29N 35°22' E 139°40'0 0.0
2017-Jan-09 18:29N 35°22' E 139°40'0 0.1
2017-Jan-09 17:32N 35°22' E 139°40'0 0.0
2017-Jan-09 16:32N 35°22' E 139°40'0 0.0
2017-Jan-09 15:32N 35°22' E 139°40'0 0.1
2017-Jan-09 14:29N 35°22' E 139°40'0 0.0
2017-Jan-09 13:29N 35°22' E 139°40'0 0.0
2017-Jan-09 12:32N 35°22' E 139°40'0 0.0
2017-Jan-09 11:32N 35°22' E 139°40'0 0.0
2017-Jan-09 10:32N 35°22' E 139°40'0 0.0
2017-Jan-09 09:32N 35°22' E 139°40'0 0.0
2017-Jan-09 08:32N 35°22' E 139°40'0 0.0
2017-Jan-09 07:29N 35°22' E 139°40'0 0.0
2017-Jan-09 06:32N 35°22' E 139°40'0 0.0
2017-Jan-09 05:32N 35°22' E 139°40'0 0.0
2017-Jan-09 04:32N 35°22' E 139°40'0 0.0
2017-Jan-09 03:32N 35°22' E 139°40'0 0.0
2017-Jan-09 02:32N 35°22' E 139°40'0 0.0
2017-Jan-09 01:33N 35°22' E 139°40'0 0.0
2017-Jan-09 00:33N 35°22' E 139°40'0 0.0
2017-Jan-08 23:33N 35°22' E 139°40'0 0.0
2017-Jan-08 22:33N 35°22' E 139°40'0 0.0
2017-Jan-08 21:33N 35°22' E 139°40'0 0.0
2017-Jan-08 20:33N 35°22' E 139°40'0 0.0
2017-Jan-08 19:33N 35°22' E 139°40'0 0.0
2017-Jan-08 18:33N 35°22' E 139°40'0 0.0
2017-Jan-08 17:33N 35°22' E 139°40'0 0.0
2017-Jan-08 16:32N 35°22' E 139°40'0 0.0
2017-Jan-08 15:30N 35°22' E 139°40'0 0.0
2017-Jan-08 14:30N 35°22' E 139°40'0 0.0
2017-Jan-08 13:33N 35°22' E 139°40'0 0.0
2017-Jan-08 12:33N 35°22' E 139°40'0 0.0
2017-Jan-08 11:33N 35°22' E 139°40'0 0.0
2017-Jan-08 10:30N 35°22' E 139°40'0 0.0
2017-Jan-08 09:27N 35°22' E 139°40'0 0.1
2017-Jan-08 08:33N 35°22' E 139°40'0 0.0
2017-Jan-08 07:30N 35°22' E 139°40'0 0.0
2017-Jan-08 06:33N 35°22' E 139°40'0 0.0
2017-Jan-08 05:30N 35°22' E 139°40'0 0.0
2017-Jan-08 04:33N 35°22' E 139°40'0 0.0
2017-Jan-08 03:33N 35°22' E 139°40'0 0.0
2017-Jan-08 02:33N 35°22' E 139°40'0 0.0
2017-Jan-08 01:33N 35°22' E 139°40'6 6.1
2017-Jan-08 00:34N 35°25' E 139°46'7 7.1
2017-Jan-07 23:32N 35°22' E 139°53'0 0.0
2017-Jan-07 21:33N 35°22' E 139°53'0 0.0
2017-Jan-07 20:29N 35°22' E 139°53'0 0.0
2017-Jan-07 19:33N 35°22' E 139°53'0 0.0
2017-Jan-07 18:32N 35°22' E 139°53'0 0.0
2017-Jan-07 17:33N 35°22' E 139°53'0 0.0
2017-Jan-07 16:32N 35°22' E 139°53'0 0.0
2017-Jan-07 15:33N 35°22' E 139°53'0 0.0
2017-Jan-07 14:33N 35°22' E 139°53'0 0.0
2017-Jan-07 13:33N 35°22' E 139°53'0 0.0
2017-Jan-07 12:33N 35°22' E 139°53'0 0.0
2017-Jan-07 11:33N 35°22' E 139°53'8 7.7
2017-Jan-07 10:33N 35°29' E 139°51'1312.7
2017-Jan-07 09:33N 35°36' E 140°05'1 0.2
2017-Jan-07 02:14N 35°37' E 140°05'0 0.0
2017-Jan-07 01:09N 35°37' E 140°05'0 0.0
2017-Jan-07 00:33N 35°37' E 140°05'1 0.0
2017-Jan-05 22:33N 35°35' E 140°05'1 0.1
2017-Jan-05 13:20N 35°35' E 140°04'810.6
2017-Jan-05 12:33N 35°30' E 139°55'1110.6
2017-Jan-05 11:33N 35°23' E 139°46'10 9.8
2017-Jan-05 10:33N 35°13' E 139°47'244 4.9
2017-Jan-03 08:20N 34°14' E 134°59'912.0
2017-Jan-03 07:33N 34°23' E 135°03'1212.0
2017-Jan-03 06:34N 34°30' E 135°14'1110.5
2017-Jan-03 05:33N 34°36' E 135°25'  

Dump ship's entire track history